Tiempo atmosférico en la estación meteorológica de Albacete, Albacete (674 m.)



Fecha
DESCASC
Temp. máxima en grados centígrados (hora)
DESCASC
Temp. mínima en grados centígrados (hora)
DESCASC
Temp. media en grados centígrados
DESCASC
Racha de viento máxima en m/sg (hora)
DESCASC
Velocidad máxima media en intervalos de 10 minutos(hora)
DESCASC
Precipitaciones diarias en mm
DESCASC
Precipitaciones de 00:00 a 06:00 en mm
DESCASC
Precipitaciones de 06:00 a 12:00 en mm
DESCASC
Precipitaciones de 12:00 a 18:00 en mm
DESCASC
Precipitaciones de 18:00 a 24:00 en mm
DESCASC
29-10-2020 22.2 (15:50) 6.5 (08:00) 14.4 3.61 (14:20) 1.11 (12:30) 0 0 0 0 0
28-10-2020 18.3 (15:40) 5.7 (07:10) 12 5.28 (11:40) 1.94 (14:50) 0 0 0 0 0
27-10-2020 -- (--) -- (--) -- -- (--) -- (--) -- 0 0 0 --
26-10-2020 13.9 (00:10) 6.7 (00:00) 10.3 12.22 (14:30) 4.17 (00:20) 10.3 9 1.3 0 0
25-10-2020 18.5 (14:40) 9 (00:00) 13.8 11.39 (20:00) 4.44 (18:00) 0 0 0 0 0
24-10-2020 19.1 (16:40) 5.6 (00:00) 12.4 7.22 (17:30) 2.5 (15:50) 0 0 0 0 0
23-10-2020 18.3 (16:20) 10.2 (00:00) 14.2 10.56 (14:10) 3.61 (13:30) 0.1 0 0 0.1 0
22-10-2020 16.6 (01:00) 13.2 (00:00) 14.9 3.89 (00:20) 1.39 (15:50) 4.9 0.1 1.3 2.1 1.4
21-10-2020 22.1 (13:20) 14 (00:00) 18.1 10.56 (16:10) 3.89 (14:10) 0.2 0 0 0 0.2
20-10-2020 22.9 (14:10) 12.8 (00:00) 17.8 10.28 (15:30) 4.17 (07:50) 0 0 0 0 0
19-10-2020 22.7 (16:20) 5.2 (00:00) 14 8.89 (14:40) 3.89 (18:40) 0 0 0 0 0
18-10-2020 23.7 (15:30) 2.9 (00:00) 13.3 5.28 (17:30) 1.94 (18:10) 0 0 0 0 0
17-10-2020 20.6 (16:20) 2.1 (00:00) 11.4 7.22 (17:40) 2.22 (16:00) 0 0 0 0 0
16-10-2020 17.6 (16:20) 3.1 (00:00) 10.4 7.78 (18:00) 2.78 (14:40) 0 0 0 0 0
15-10-2020 18.3 (16:10) 5.7 (00:00) 12 9.17 (16:20) 2.78 (14:30) 0 0 0 0 0
14-10-2020 19.4 (14:50) 9.8 (00:00) 14.6 10.28 (17:50) 3.06 (14:00) 0 0 0 0 0
13-10-2020 22.7 (15:20) 7.4 (00:00) 15.1 8.33 (16:40) 3.61 (18:00) 0 0 0 0 0
12-10-2020 19.4 (16:10) 5.5 (00:00) 12.4 6.94 (18:30) 2.78 (18:20) 0 0 0 0 0
11-10-2020 22.2 (17:10) 11.2 (00:00) 16.7 7.5 (18:30) 1.67 (14:50) 0 0 0 0 0
10-10-2020 26.5 (16:40) 12.1 (00:00) 19.3 5 (21:40) 1.67 (21:30) 0 0 0 0 0
09-10-2020 28.9 (16:20) 13.1 (00:00) 21 6.11 (01:10) 2.22 (03:00) 0 0 0 0 0
08-10-2020 27 (17:10) 10.5 (00:00) 18.8 7.78 (13:10) 2.78 (14:20) 0 0 0 0 0
07-10-2020 -- (--) -- (--) -- -- (--) -- (--) -- 0 0 -- 0
06-10-2020 24.8 (17:20) 8 (00:00) 16.4 6.67 (14:50) 2.78 (14:50) 0 0 0 0 0
05-10-2020 18.9 (17:40) 8.4 (00:00) 13.6 9.44 (16:00) 3.06 (16:00) 0 0 0 0 0
04-10-2020 17.3 (14:00) 8 (00:00) 12.6 12.78 (14:20) 5 (14:20) 0 0 0 0 0
03-10-2020 16.8 (15:50) 6 (00:00) 11.4 10.56 (14:50) 3.89 (14:50) 0.1 0 0.1 0 0
02-10-2020 18.5 (12:30) 9 (00:00) 13.8 20 (15:20) 7.22 (12:50) 16.9 0 0 16.9 0
01-10-2020 27.2 (16:50) 13.1 (00:00) 20.2 10.83 (17:50) 3.89 (15:40) 0 0 0 0 0

Gráficas

Temp. máximas Temp. mínimas Temp. medias Precipitaciones Rachas de viento máximas Velocidades máximas media en intervalos de 10 minutos

Datos horarios

Fecha y hora oficial Temperatura (ºC) Velocidad del viento (km/h) Dirección del viento Racha (km/h) Dirección de racha Precipitación (mm) Presión (hPa) Tendencia (hPa) Humedad (%)
2020-10-30 23:00:00 13 0 Calma 6 Sudeste 0 947.9 0.6 72
2020-10-30 22:00:00 12.8 0 Calma -- -- 0 947.7 0.8 73
2020-10-30 21:00:00 13.9 0 Calma -- -- 0 947.5 0.9 67
2020-10-30 20:00:00 14.9 0 Calma 4 Sudeste 0 947.3 0.7 62
2020-10-30 19:00:00 16.5 0 Calma 2 Este 0 946.9 0.3 54
2020-10-30 18:00:00 19.8 0 Calma 5 Sudoeste 0 946.6 -0.2 42
2020-10-30 17:00:00 23.2 2 Sudoeste 6 Sudeste 0 946.6 -0.9 29
2020-10-30 16:00:00 24.7 0 Calma 9 Sudoeste 0 946.6 -1.5 27
2020-10-30 15:00:00 24.4 3 Sur 10 Noroeste 0 946.8 -2.2 30
2020-10-30 14:00:00 23.7 2 Sudeste 8 Sudeste 0 947.5 -1.7 37
2020-10-30 13:00:00 21.1 0 Calma 2 Nordeste 0 948.1 -1.4 48
2020-10-30 12:00:00 17.6 0 Calma 0 Calma 0 949 -- 59
2020-10-30 11:00:00 13.6 0 Calma 2 Este 0 949.2 -- 77
2020-10-30 10:00:00 9 0 Calma 0 Calma 0 949.5 -- 93
2020-10-30 09:00:00 6.4 0 Calma 0 Calma 0 949.2 -- 97
2020-10-30 08:00:00 5.5 0 Calma -- -- 0 948.6 -- 96
2020-10-30 07:00:00 5.6 0 Calma -- -- 0 948.5 -- 96
2020-10-30 06:00:00 5.8 0 Calma -- -- 0 948.5 -- 94
2020-10-30 05:00:00 6.9 0 Calma 0 Calma 0 948.5 -- 94
2020-10-30 04:00:00 7.5 0 Calma -- -- 0 948.5 -- 94
2020-10-30 03:00:00 8.1 0 Calma -- -- 0 948.7 -- 93
2020-10-30 02:00:00 8.8 0 Calma -- -- 0 948.9 -- 92
2020-10-30 01:00:00 9.6 0 Calma -- -- 0 949 -- 91
2020-10-30 00:00:00 10.4 0 Calma -- -- 0 949.3 -- 88
2020-10-29 23:00:00 11.6 0 Calma 0 Calma 0 949.1 -- 84
2020-10-29 22:00:00 12.8 0 Calma 5 Sudoeste 0 949 -- 79
2020-10-29 21:00:00 13.5 0 Calma 5 Oeste 0 948.6 -- 77
2020-10-29 20:00:00 14.3 0 Calma -- -- 0 948.4 -- 74
2020-10-29 19:00:00 16.3 0 Calma 4 Noroeste 0 948.1 -- 64
2020-10-29 18:00:00 18.9 0 Calma 10 Norte 0 947.5 -- 54
2020-10-29 17:00:00 20.9 2 Norte 12 Noroeste 0 947.4 -- 46
2020-10-29 16:00:00 22.2 0 Calma 9 Oeste 0 947.1 -- 43
2020-10-29 15:00:00 21.4 2 Noroeste 13 Sudoeste 0 947.3 -- 44
2020-10-29 14:00:00 20.1 3 Sudoeste 11 Sur 0 947.8 -- 49
2020-10-29 13:00:00 18.2 2 Este 12 Este 0 948.9 -- 56
2020-10-29 12:00:00 16.4 2 Nordeste 10 Este 0 949.8 -- 63
2020-10-29 11:00:00 13.6 0 Calma 8 Norte 0 950.1 -- 79
2020-10-29 10:00:00 10.5 0 Calma 0 Calma 0 949.7 -- 93
2020-10-29 09:00:00 7.7 0 Calma -- -- 0 949.3 -- 96
2020-10-29 08:00:00 6.6 0 Calma 0 Calma 0 948.7 -- 96
2020-10-29 07:00:00 7.2 0 Calma 4 Sudoeste 0 948.2 -- 95
2020-10-29 06:00:00 7.4 0 Calma 5 Sudoeste 0 948.2 -- 95
2020-10-29 05:00:00 7.6 0 Calma 3 Sudoeste 0 947.9 -- 94
2020-10-29 04:00:00 7.6 0 Calma 0 Calma 0 947.4 -- 93
2020-10-29 03:00:00 8.6 0 Calma 6 Sudoeste 0 947.6 -- 92
2020-10-29 02:00:00 9.2 0 Calma 5 Sudoeste 0 947 -- 91
2020-10-29 01:00:00 9.7 0 Calma 3 Oeste 0 947 -- 89
2020-10-29 00:00:00 10.6 0 Calma 4 Sudoeste 0 947.1 -- 86
2020-10-28 23:00:00 11.3 0 Calma 8 Sudoeste 0 947.3 -- 82
2020-10-28 22:00:00 11.9 0 Calma 8 Oeste 0 946.7 -- 78
2020-10-28 21:00:00 13 0 Calma 9 Oeste 0 946.5 -- 73
2020-10-28 20:00:00 13.7 2 Oeste 10 Oeste 0 945.7 -- 71
2020-10-28 19:00:00 14.5 0 Calma 7 Oeste 0 945.2 -- 69
2020-10-28 18:00:00 16.2 3 Oeste 14 Oeste 0 944.3 -- 60
2020-10-28 17:00:00 17.5 5 Oeste 18 Oeste 0 944.4 -- 54
2020-10-28 16:00:00 18.2 5 Oeste 18 Oeste 0 944.4 -- 53
2020-10-28 15:00:00 17.6 4 Oeste 19 Oeste 0 944.4 -- 57
2020-10-28 14:00:00 15.6 6 Oeste 18 Oeste 0 944.6 -- 63
2020-10-28 13:00:00 14.5 5 Oeste 17 Oeste 0 945.1 -- 67
2020-10-28 12:00:00 12.8 5 Oeste 19 Oeste 0 945.7 -- 75
2020-10-28 11:00:00 10 4 Noroeste 18 Oeste 0 945.8 -- 84
2020-10-28 10:00:00 9.6 3 Noroeste 12 Oeste 0 945.7 -- 90
2020-10-28 09:00:00 7.5 3 Oeste 13 Oeste 0 945 -- 94
2020-10-28 08:00:00 6.2 0 Calma 6 Oeste 0 944.1 -- 93
2020-10-28 07:00:00 5.8 0 Calma 0 Calma 0 943.6 -- 91
2020-10-28 06:00:00 6.2 0 Calma 8 Oeste 0 943.1 -- 89
2020-10-28 05:00:00 6.7 2 Oeste 7 Oeste 0 942.6 -- 88
2020-10-28 04:00:00 7 4 Oeste 10 Oeste 0 942.7 -- 88
2020-10-28 03:00:00 6.8 3 Oeste 10 Oeste 0 942.7 -- 86
2020-10-28 02:00:00 7.6 2 Oeste 10 Oeste 0 942.7 -- 82
2020-10-28 01:00:00 7.7 4 Oeste 12 Oeste 0 943 -- 79
2020-10-28 00:00:00 -- -- -- -- -- -- -- -- --
2020-10-27 23:00:00 -- -- -- -- -- -- -- -- --
2020-10-27 22:00:00 -- -- -- -- -- -- -- -- --
2020-10-27 21:00:00 10.3 0 Calma 15 Oeste 0 942.3 -- 56
2020-10-27 20:00:00 11.2 6 Oeste 16 Oeste 0 942.1 -- 49
2020-10-27 19:00:00 12.3 4 Noroeste 16 Oeste 0 941.6 -- 45
2020-10-27 18:00:00 13.6 4 Noroeste 20 Oeste 0 941.1 -- 44
2020-10-27 17:00:00 15 7 Oeste 28 Oeste 0 941.1 -- 40
2020-10-27 16:00:00 15.7 7 Oeste 30 Oeste 0 940.8 -- 40
2020-10-27 15:00:00 15.4 8 Oeste 27 Noroeste 0 941.2 -- 40
2020-10-27 14:00:00 15 8 Oeste 27 Oeste 0 941.6 -- 44
2020-10-27 13:00:00 14.3 8 Oeste 28 Oeste 0 942.3 -- 45
2020-10-27 12:00:00 13 6 Oeste 24 Oeste 0 942.8 -- 50
2020-10-27 11:00:00 10.1 3 Oeste 15 Oeste 0 942.9 -- 69
2020-10-27 10:00:00 7.3 5 Oeste 21 Oeste 0 943 -- 80
2020-10-27 09:00:00 5.1 7 Oeste 16 Oeste 0 942.7 -- 87
2020-10-27 08:00:00 3.7 0 Calma 9 Oeste 0 942.2 -- 90
2020-10-27 07:00:00 3.9 0 Calma 7 Oeste 0 942.3 -- 90
2020-10-27 06:00:00 4.3 3 Oeste 7 Oeste 0 942 -- 88
2020-10-27 05:00:00 4.6 2 Sudoeste 9 Oeste 0 941.5 -- 87
2020-10-27 04:00:00 4.8 2 Oeste 11 Sudoeste 0 941.8 -- 86
2020-10-27 03:00:00 4.9 5 Oeste 12 Sudoeste 0 942.4 -- 85
2020-10-27 02:00:00 5.1 3 Oeste 11 Oeste 0 942.8 -- 83
2020-10-27 01:00:00 6.1 5 Oeste 9 Oeste 0 943 -- 78
2020-10-27 00:00:00 6.8 3 Sudoeste 9 Sudoeste 0 943.1 -- 74
2020-10-26 23:00:00 7 0 Calma 13 Sudoeste 0 943.2 -- 72
2020-10-26 22:00:00 7.2 5 Oeste 17 Oeste 0 942.7 -- 70
2020-10-26 21:00:00 7.8 4 Oeste -- -- -- 942.4 -- 71
2020-10-26 20:00:00 8.6 0 Calma 5 Oeste 0 942 -- 66
2020-10-26 19:00:00 9.8 0 Calma 16 Oeste 0 941.5 -- 58
2020-10-26 18:00:00 11.2 3 Noroeste 34 Oeste 0 940.7 -- 49
2020-10-26 17:00:00 12.3 6 Oeste 33 Oeste 0 940.1 -- 46
2020-10-26 16:00:00 13.4 9 Oeste 38 Oeste 0 940 -- 43
2020-10-26 15:00:00 13 8 Noroeste 44 Oeste 0 939.4 -- 46
2020-10-26 14:00:00 12.8 9 Oeste 36 Oeste 0 939.2 -- 48
2020-10-26 13:00:00 11.3 11 Oeste 34 Oeste 0 939.8 -- 54
2020-10-26 12:00:00 10.2 10 Oeste 35 Oeste 0 940.5 -- 64
2020-10-26 11:00:00 9.7 10 Oeste 40 Oeste 0 940 -- 70
2020-10-26 10:00:00 8.8 7 Oeste 30 Oeste 0 939.3 -- 81
2020-10-26 09:00:00 8.2 10 Oeste 30 Oeste 0.3 938.5 -- 89
2020-10-26 08:00:00 7.7 6 Oeste 24 Sudoeste 0.5 937.4 -- 94
2020-10-26 07:00:00 7.7 7 Oeste 23 Oeste 0.5 937 -- 91
2020-10-26 06:00:00 9 5 Oeste 27 Oeste 0 936.6 -- 82
2020-10-26 05:00:00 10.2 5 Oeste 23 Sudoeste 0 936.1 -- 85
2020-10-26 04:00:00 10.3 6 Sudoeste 15 Sudoeste 0.3 935.5 -- 93
2020-10-26 03:00:00 10.5 0 Calma 13 Oeste 1.2 935.6 -- 94
2020-10-26 02:00:00 10.8 3 Oeste 26 Oeste 3.4 935.8 -- 94
2020-10-26 01:00:00 11.7 6 Oeste 36 Oeste 4.1 936 -- 92
2020-10-26 00:00:00 13.8 10 Oeste 32 Oeste 0 935.6 -- 69
2020-10-25 23:00:00 14.1 13 Sudoeste 35 Oeste 0 936 -- 65
2020-10-25 22:00:00 14.3 11 Sudoeste 40 Oeste 0 936.4 -- 62
2020-10-25 21:00:00 13.7 13 Oeste 39 Oeste 0 937.1 -- 62
2020-10-25 20:00:00 13.4 15 Sudoeste 41 Oeste 0 937 -- 60
2020-10-25 19:00:00 13.6 6 Oeste 39 Sudoeste 0 937.7 -- 57
2020-10-25 18:00:00 14.9 16 Oeste 39 Oeste 0 937.6 -- 46
2020-10-25 17:00:00 16.5 10 Sudoeste 31 Oeste 0 937.8 -- 42
2020-10-25 16:00:00 17.7 12 Oeste 33 Oeste 0 938.2 -- 39
2020-10-25 15:00:00 17.9 11 Sudoeste 32 Oeste 0 938.7 -- 40
2020-10-25 14:00:00 18 10 Oeste 35 Sudoeste 0 939.5 -- 42
2020-10-25 13:00:00 17.3 14 Oeste 33 Oeste 0 940.6 -- 46
2020-10-25 12:00:00 15.8 10 Oeste 27 Oeste 0 941.7 -- 53
2020-10-25 11:00:00 14.6 10 Oeste 26 Oeste 0 942.2 -- 60
2020-10-25 10:00:00 13.3 8 Oeste 18 Oeste 0 942.4 -- 71
2020-10-25 09:00:00 11.4 5 Oeste 17 Oeste 0 942.6 -- 82
2020-10-25 08:00:00 10.1 3 Oeste 12 Oeste 0 942.7 -- 90
2020-10-25 07:00:00 9.3 2 Oeste 10 Oeste 0 942.6 -- 90
2020-10-25 06:00:00 9.5 6 Oeste 17 Sudoeste 0 942.7 -- 89
2020-10-25 05:00:00 9.5 3 Oeste 15 Oeste 0 942.5 -- 87
2020-10-25 04:00:00 9.3 3 Sudoeste 11 Sudoeste 0 942.9 -- 87
2020-10-25 03:00:00 9.3 3 Oeste 12 Oeste 0 944 -- 83
2020-10-25 02:00:00 10.2 4 Oeste 12 Oeste 0 944.3 -- 79
2020-10-25 01:00:00 11.1 5 Oeste 21 Sudoeste 0 945 -- 70
2020-10-25 00:00:00 11.2 5 Oeste 16 Sudoeste 0 945.1 -- 71
2020-10-24 23:00:00 12.2 6 Oeste 13 Sudoeste 0 945.2 -- 63
2020-10-24 22:00:00 12.4 3 Sudoeste 8 Sudoeste 0 945.2 -- 63
2020-10-24 21:00:00 13.5 2 Oeste 9 Oeste 0 945.2 -- 55
2020-10-24 20:00:00 14.8 2 Oeste 11 Oeste 0 945 -- 49
2020-10-24 19:00:00 16.6 3 Oeste 18 Oeste 0 944.8 -- 44
2020-10-24 18:00:00 18.1 8 Oeste 26 Oeste 0 945.1 -- 40
2020-10-24 17:00:00 18.7 8 Oeste 25 Oeste 0 945.4 -- 38
2020-10-24 16:00:00 18.6 5 Oeste 23 Oeste 0 945.6 -- 40
2020-10-24 15:00:00 18.1 6 Oeste 25 Oeste 0 946.3 -- 45
2020-10-24 14:00:00 15.9 5 Noroeste 23 Oeste 0 947.1 -- 53
2020-10-24 13:00:00 15.1 7 Oeste 17 Oeste 0 947.8 -- 63
2020-10-24 12:00:00 13.3 5 Oeste 12 Oeste 0 948.4 -- 74
2020-10-24 11:00:00 9.4 3 Oeste 9 Sudoeste 0 948.6 -- 89
2020-10-24 10:00:00 7.2 2 Oeste 7 Oeste 0 948.4 -- 95
2020-10-24 09:00:00 5.7 0 Calma -- -- 0 947.8 -- 94
2020-10-24 08:00:00 5.8 0 Calma -- -- 0 947.7 -- 93
2020-10-24 07:00:00 6.5 0 Calma 6 Sudoeste 0 947.7 -- 93
2020-10-24 06:00:00 6.7 0 Calma 3 Sudoeste 0 947.3 -- 91
2020-10-24 05:00:00 7.3 0 Calma -- -- 0 947.6 -- 89
2020-10-24 04:00:00 8.1 0 Calma 8 Oeste 0 947.8 -- 86
2020-10-24 03:00:00 8.8 4 Oeste 12 Oeste 0 947.5 -- 83
2020-10-24 02:00:00 9.2 0 Calma 10 Sudoeste 0 947.8 -- 81
2020-10-24 01:00:00 9.7 3 Oeste 7 Sudoeste 0 947.8 -- 78
2020-10-24 00:00:00 10.2 0 Calma 10 Oeste 0 947.6 -- 75
2020-10-23 23:00:00 10.8 3 Oeste 12 Oeste 0 946.8 -- 70
2020-10-23 22:00:00 11.6 5 Oeste 17 Oeste 0 946.4 -- 64
2020-10-23 21:00:00 12.7 7 Oeste 16 Oeste 0 946.1 -- 59
2020-10-23 20:00:00 13.4 7 Oeste 19 Oeste 0 945.7 -- 56
2020-10-23 19:00:00 14.5 6 Oeste 26 Oeste 0 945.3 -- 50
2020-10-23 18:00:00 15.4 9 Oeste 32 Oeste 0 944.8 -- 47
2020-10-23 17:00:00 17.5 11 Oeste 31 Oeste 0 944.5 -- 39
2020-10-23 16:00:00 17.7 11 Oeste 31 Oeste 0 944.1 -- 43
2020-10-23 15:00:00 16.4 8 Oeste 38 Oeste 0 944.2 -- 45
2020-10-23 14:00:00 17 12 Oeste 34 Noroeste 0.1 944.5 -- 43
2020-10-23 13:00:00 15.9 10 Oeste 29 Sudoeste 0 944.6 -- 49
2020-10-23 12:00:00 15.1 11 Oeste 28 Oeste 0 944.8 -- 64
2020-10-23 11:00:00 13.3 6 Oeste 25 Oeste 0 944.5 -- 77
2020-10-23 10:00:00 11.7 6 Oeste 17 Oeste 0 944 -- 86
2020-10-23 09:00:00 11 6 Oeste 26 Oeste 0 943.3 -- 87
2020-10-23 08:00:00 11 2 Oeste 14 Sudoeste 0 942.7 -- 87
2020-10-23 07:00:00 11.7 3 Sudoeste 12 Oeste 0 942.2 -- 85
2020-10-23 06:00:00 12.5 4 Sudoeste 18 Sudoeste 0 941.7 -- 84
2020-10-23 05:00:00 12.6 5 Oeste 14 Oeste 0 941.2 -- 89
2020-10-23 04:00:00 13.1 4 Oeste 11 Sudoeste 0 941 -- 90
2020-10-23 03:00:00 13.3 5 Sudoeste 14 Sudoeste 0 941.1 -- 91
2020-10-23 02:00:00 13 0 Calma 10 Sudoeste 0 940.6 -- 95
2020-10-23 01:00:00 13.2 0 Calma 4 Sur 0 940.5 -- 95
2020-10-23 00:00:00 13.2 0 Calma 8 Sur 0 939.9 -- 95
2020-10-22 23:00:00 13.4 0 Calma 5 Sudoeste 0 939.4 -- 95
2020-10-22 22:00:00 13.4 0 Calma 7 Oeste 0 939.1 -- 95
2020-10-22 21:00:00 13.7 0 Calma 7 Este 0 938.7 -- 95
2020-10-22 20:00:00 14 0 Calma 7 Sudoeste 1 938.3 -- 94
2020-10-22 19:00:00 14.5 0 Calma 7 Sudeste 0.4 937.8 -- 89
2020-10-22 18:00:00 14.7 3 Sudeste 8 Sudoeste 0.3 937.4 -- 89
2020-10-22 17:00:00 15 3 Sudeste 12 Sudoeste 0.7 937.3 -- 90
2020-10-22 16:00:00 15.7 3 Sur 13 Sur 0.6 937.2 -- 86
2020-10-22 15:00:00 16.1 0 Calma 7 Sudoeste 0.3 937.4 -- 84
2020-10-22 14:00:00 16.1 2 Sur 9 Sur 0.1 937.8 -- 83
2020-10-22 13:00:00 15.7 3 Sudeste 11 Sudeste 0.1 937.8 -- 86
2020-10-22 12:00:00 15 0 Calma 3 Sudeste 0.7 937.9 -- 91
2020-10-22 11:00:00 14.5 0 Calma 0 Calma 0.6 938.2 -- 92
2020-10-22 10:00:00 14.1 0 Calma 2 Oeste 0 937.6 -- 87
2020-10-22 09:00:00 13.6 0 Calma -- -- 0 936.5 -- 84
2020-10-22 08:00:00 13.9 0 Calma -- -- 0 935.9 -- 82
2020-10-22 07:00:00 14.4 0 Calma 5 Este 0 936.2 -- 79
2020-10-22 06:00:00 14.7 0 Calma 3 Este 0 936.3 -- 77
2020-10-22 05:00:00 15.3 0 Calma -- -- 0 936.3 -- 74
2020-10-22 04:00:00 15.7 0 Calma 6 Sudoeste 0 936.8 -- 71
2020-10-22 03:00:00 16.4 0 Calma 12 Sudoeste 0 936.9 -- 66
2020-10-22 02:00:00 16.5 0 Calma 13 Sudoeste 0 936.4 -- 65
2020-10-22 01:00:00 16.5 0 Calma 14 Sudeste 0.1 936.3 -- 67
2020-10-22 00:00:00 15.8 2 Este 10 Este 0.2 936.7 -- 73
2020-10-21 23:00:00 16.4 4 Este 10 Este 0 937.1 -- 58
2020-10-21 22:00:00 16.5 0 Calma -- -- 0 936.9 -- 57
2020-10-21 21:00:00 17 0 Calma 4 Este 0 936.4 -- 54
2020-10-21 20:00:00 18.1 0 Calma 9 Este 0 935.8 -- 49
2020-10-21 19:00:00 19.5 4 Oeste 19 Oeste 0 935.2 -- 44
2020-10-21 18:00:00 20.3 7 Oeste 27 Oeste 0 935.1 -- 42
2020-10-21 17:00:00 20.9 9 Oeste 38 Oeste 0 935.1 -- 41
2020-10-21 16:00:00 21.2 12 Oeste 30 Oeste 0 935.1 -- 40
2020-10-21 15:00:00 21.2 12 Oeste 35 Oeste 0 935.3 -- 43
2020-10-21 14:00:00 21 14 Oeste 35 Oeste 0 935.7 -- 41
2020-10-21 13:00:00 21.4 10 Oeste 29 Sudoeste 0 935.7 -- 43
2020-10-21 12:00:00 20.3 4 Sudoeste 13 Sudoeste 0 935.7 -- 50
2020-10-21 11:00:00 18.2 4 Oeste 34 Oeste 0 935.2 -- 57
2020-10-21 10:00:00 16.3 8 Oeste 23 Oeste 0 934.7 -- 64
2020-10-21 09:00:00 14 0 Calma 18 Oeste 0 934.3 -- 74
2020-10-21 08:00:00 14.7 2 Sudoeste 19 Sudoeste 0 933.5 -- 74
2020-10-21 07:00:00 15.7 7 Sudoeste 29 Oeste 0 932.9 -- 73
2020-10-21 06:00:00 16.4 4 Sudoeste 24 Sudoeste 0 932.9 -- 72
2020-10-21 05:00:00 15.9 0 Calma -- -- 0 932.5 -- 71
2020-10-21 04:00:00 16.4 0 Calma 5 Sur 0 932.8 -- 67
2020-10-21 03:00:00 16.8 0 Calma 15 Sur 0 933.2 -- 65
2020-10-21 02:00:00 16.8 3 Sur 19 Sudoeste 0 933.3 -- 65
2020-10-21 01:00:00 17.7 6 Sudoeste 25 Sur 0 932.5 -- 50
2020-10-21 00:00:00 17.4 6 Sudeste 23 Sudeste 0 931.9 -- 56
2020-10-20 23:00:00 17.4 10 Sudeste 26 Sudeste 0 932.4 -- 58
2020-10-20 22:00:00 17.6 12 Sudeste 31 Sudeste 0 932.3 -- 61
2020-10-20 21:00:00 18.1 10 Sudeste 35 Sudeste 0 932.6 -- 58
2020-10-20 20:00:00 18.9 13 Sudeste 35 Sudeste 0 932.7 -- 51
2020-10-20 19:00:00 19.7 8 Sudeste 33 Sur 0 932.8 -- 44
2020-10-20 18:00:00 20.3 11 Sudeste 31 Sudeste 0 932.9 -- 38
2020-10-20 17:00:00 20.8 10 Sudeste 36 Este 0 933.5 -- 34
2020-10-20 16:00:00 21.2 9 Sudeste 37 Sudeste 0 934.6 -- 32
2020-10-20 15:00:00 21.3 10 Sudeste 32 Sudoeste 0 935.2 -- 30
2020-10-20 14:00:00 22.7 7 Sur 33 Sudeste 0 936.7 -- 28
2020-10-20 13:00:00 19 8 Sudeste 30 Sur 0 937.5 -- 35
2020-10-20 12:00:00 16.4 7 Sudeste 28 Sudeste 0 937.9 -- 45
2020-10-20 11:00:00 14.8 9 Sudeste 24 Este 0 937.9 -- 54
2020-10-20 10:00:00 14 4 Sur 17 Sudeste 0 937.9 -- 60
2020-10-20 09:00:00 13.4 4 Sudeste 20 Sur 0 937.8 -0.2 68
2020-10-20 08:00:00 13.2 13 Sudeste 33 Sudeste 0 937.5 -- 84
2020-10-20 07:00:00 13 9 Sudeste 23 Sudeste 0 938.1 -- 88
2020-10-20 06:00:00 12.9 7 Sudeste 22 Sur 0 938 -1.4 88
2020-10-20 05:00:00 12.9 6 Sur 34 Sudeste 0 938.1 -1.8 89
2020-10-20 04:00:00 13 6 Sudeste 25 Sudeste 0 938.6 -- 88
2020-10-20 03:00:00 13.4 6 Sudeste 26 Sudeste 0 939.4 -0.8 86
2020-10-20 02:00:00 13.8 5 Sudeste 21 Sudeste 0 939.9 -0.6 80
2020-10-20 01:00:00 14.1 5 Sudeste 15 Sudeste 0 940.5 -- 74
2020-10-20 00:00:00 13.9 0 Calma 10 Sudeste 0 940.2 0.1 72
2020-10-19 23:00:00 14.7 2 Sudeste 19 Sudeste 0 940.5 0.6 66
2020-10-19 22:00:00 15.6 3 Este 25 Sudeste 0 940.3 -- 61
2020-10-19 21:00:00 16.6 8 Sudeste 26 Sudeste 0 940.1 -- 52
2020-10-19 20:00:00 17.8 8 Sudeste 31 Sur 0 939.9 -0.1 46
2020-10-19 19:00:00 18.8 10 Sudeste 32 Sur 0 939.4 -- 40
2020-10-19 18:00:00 20.7 10 Sudeste 29 Oeste 0 940 -- 34
2020-10-19 17:00:00 22.2 8 Sudeste 27 Sudeste 0 940 -- 31
2020-10-19 16:00:00 22.3 10 Sudeste 28 Sudeste 0 940.1 -- 30
2020-10-19 15:00:00 21.3 9 Sudeste 32 Sudeste 0 940.8 -- 31
2020-10-19 14:00:00 20.5 10 Sudeste 29 Sudeste 0 941.5 -- 34
2020-10-19 13:00:00 18.6 10 Sudeste 29 Sudeste 0 942.1 -- 37
2020-10-19 12:00:00 16.4 7 Sudeste 23 Sudeste 0 942.7 -- 49
2020-10-19 11:00:00 12.4 9 Sudeste 20 Este 0 943 -- 68
2020-10-19 10:00:00 7.5 4 Este 8 Nordeste 0 943 -- 90
2020-10-19 09:00:00 5.7 0 Calma 3 Este 0 942.4 -- 94
2020-10-19 08:00:00 5.6 0 Calma 6 Este 0 942.1 -- 92
2020-10-19 07:00:00 6.5 0 Calma 9 Este 0 942.3 -- 91
2020-10-19 06:00:00 7.7 3 Este 7 Este 0 942.5 -- 86
2020-10-19 05:00:00 9.3 0 Calma 13 Este 0 942.6 -- 81
2020-10-19 04:00:00 10.2 0 Calma 8 Sudeste 0 943 -- 80
2020-10-19 03:00:00 10.6 2 Sudeste 9 Sudeste 0 943.2 -- 83
2020-10-19 02:00:00 10.9 0 Calma 8 Sudeste 0 943.1 -- 77
2020-10-19 01:00:00 12.4 3 Sudeste 12 Sudeste 0 943.4 -- 70
2020-10-19 00:00:00 13.3 5 Sudeste 19 Sudeste 0 943.4 -- 63
2020-10-18 23:00:00 14.5 4 Sudeste 18 Sudeste 0 943.2 -- 56
2020-10-18 22:00:00 15.3 3 Sudeste 13 Sudeste 0 942.8 -- 46
2020-10-18 21:00:00 16.9 5 Sur 15 Sur 0 942.3 -- 40
2020-10-18 20:00:00 18.2 3 Sur 14 Sudeste 0 941.9 -- 35
2020-10-18 19:00:00 20.2 5 Sudeste 14 Sudeste 0 941.4 -- 27
2020-10-18 18:00:00 22.2 4 Sudeste 19 Nordeste 0 941.4 -- 24
2020-10-18 17:00:00 23 5 Sudeste 16 Sudeste 0 941.4 -- 24
2020-10-18 16:00:00 23.1 5 Sudeste 18 Sudeste 0 941.5 -- 24
2020-10-18 15:00:00 23.5 5 Sudeste 16 Sudeste 0 941.9 -- 26
2020-10-18 14:00:00 20.8 4 Este 11 Este 0 942.6 -- 33
2020-10-18 13:00:00 17.4 4 Este 13 Este 0 943.2 -- 38
2020-10-18 12:00:00 13.7 3 Este 8 Este 0 944 -- 49
2020-10-18 11:00:00 7.9 0 Calma 0 Calma 0 944.3 -- 64
2020-10-18 10:00:00 4.8 0 Calma 0 Calma 0 943.9 -- 74
2020-10-18 09:00:00 2.9 0 Calma 2 Este 0 943.2 -- 76
2020-10-18 08:00:00 3.6 0 Calma -- -- 0 942.8 -- 74
2020-10-18 07:00:00 4.3 0 Calma -- -- 0 942.6 -- 70
2020-10-18 06:00:00 5.1 0 Calma -- -- 0 942.3 -- 68
2020-10-18 05:00:00 6 0 Calma -- -- 0 942 -- 62
2020-10-18 04:00:00 7.4 0 Calma 6 Oeste 0 942.2 -- 56
2020-10-18 03:00:00 8 0 Calma 6 Sudoeste 0 942.2 -- 54
2020-10-18 02:00:00 8.9 0 Calma 8 Sudoeste 0 941.9 -- 50
2020-10-18 01:00:00 9.7 2 Sudoeste 7 Sur 0 942 -- 49
2020-10-18 00:00:00 10.8 2 Sudoeste 6 Sudoeste 0 941.7 -- 46
2020-10-17 23:00:00 11.5 0 Calma 7 Sudoeste 0 941.4 -- 43
2020-10-17 22:00:00 12.6 0 Calma 8 Oeste 0 940.8 -- 39
2020-10-17 21:00:00 14.6 0 Calma 9 Noroeste 0 940.4 -- 34
2020-10-17 20:00:00 15.9 0 Calma 13 Noroeste 0 940.1 -- 32
2020-10-17 19:00:00 18.1 2 Noroeste 18 Oeste 0 939.5 -- 29
2020-10-17 18:00:00 19.7 6 Oeste 26 Oeste 0 939.2 -- 28
2020-10-17 17:00:00 20.3 4 Noroeste 24 Oeste 0 939.2 -- 29
2020-10-17 16:00:00 20.1 8 Oeste 21 Oeste 0 939.1 -- 30
2020-10-17 15:00:00 19.4 5 Oeste 18 Oeste 0 939.4 -- 32
2020-10-17 14:00:00 18.2 5 Oeste 16 Oeste 0 939.9 -- 33
2020-10-17 13:00:00 16.6 3 Noroeste 14 Oeste 0 940.3 -- 37
2020-10-17 12:00:00 12.8 0 Calma 6 Oeste 0 940.6 -- 45
2020-10-17 11:00:00 7.4 0 Calma 3 Sur 0 940.6 -- 57
2020-10-17 10:00:00 4.1 0 Calma 3 Este 0 940.6 -- 68
2020-10-17 09:00:00 2.2 0 Calma -- -- 0 940 -- 72
2020-10-17 08:00:00 2.9 0 Calma 4 Sudoeste 0 939.7 -- 69
2020-10-17 07:00:00 2.5 0 Calma -- -- 0 939.4 -- 70
2020-10-17 06:00:00 3.2 0 Calma -- -- 0 939.1 -- 66
2020-10-17 05:00:00 3.8 0 Calma -- -- 0 938.9 -- 64
2020-10-17 04:00:00 4.7 0 Calma -- -- 0 939.3 -- 57
2020-10-17 03:00:00 5.7 0 Calma -- -- 0 939.3 -- 52
2020-10-17 02:00:00 7.2 0 Calma 8 Sudoeste 0 939.8 -- 46
2020-10-17 01:00:00 8 0 Calma 9 Sudoeste 0 940 -- 44
2020-10-17 00:00:00 9 2 Sudoeste 8 Sudoeste 0 940.3 -- 43
2020-10-16 23:00:00 9.5 3 Sudoeste 9 Sur 0 940.4 -- 41
2020-10-16 22:00:00 10.7 0 Calma 11 Oeste 0 939.9 -- 37
2020-10-16 21:00:00 12 4 Oeste 14 Oeste 0 939.8 1.3 34
2020-10-16 20:00:00 13.4 3 Oeste 17 Oeste 0 939.3 -- 31
2020-10-16 19:00:00 15.1 4 Oeste 21 Oeste 0 938.7 -- 29
2020-10-16 18:00:00 16.6 6 Noroeste 28 Oeste 0 938.5 -- 27
2020-10-16 17:00:00 16.9 7 Oeste 24 Oeste 0 938.7 -- 26
2020-10-16 16:00:00 16.6 8 Oeste 27 Oeste 0 939 -- 28
2020-10-16 15:00:00 16.4 4 Noroeste 24 Oeste 0 939.5 -- 30
2020-10-16 14:00:00 14.9 6 Oeste 19 Oeste 0 940.3 -- 37
2020-10-16 13:00:00 12.2 5 Oeste 16 Oeste 0 941.1 -- 44
2020-10-16 12:00:00 9.9 3 Oeste 12 Sur 0 941.5 -- 54
2020-10-16 11:00:00 6.1 2 Oeste 10 Oeste 0 941.5 1 69
2020-10-16 10:00:00 4.4 2 Oeste 11 Oeste 0 941 0.7 75
2020-10-16 09:00:00 3.7 2 Sudoeste 8 Oeste 0 940.6 0.6 80
2020-10-16 08:00:00 3.3 0 Calma 4 Oeste 0 940.5 -- 80
2020-10-16 07:00:00 3.8 0 Calma 4 Oeste 0 940.3 -- 77
2020-10-16 06:00:00 4.2 2 Sudoeste 9 Sudoeste 0 940 -- 75
2020-10-16 05:00:00 4.9 2 Sudoeste 7 Sudoeste 0 939.8 -- 70
2020-10-16 04:00:00 6.4 0 Calma 5 Oeste 0 940 -- 67
2020-10-16 03:00:00 7 2 Oeste 7 Sudoeste 0 940.2 -- 63
2020-10-16 02:00:00 7.3 3 Sudoeste 6 Sudoeste 0 940.2 -- 60
2020-10-16 01:00:00 8.4 0 Calma 5 Sudoeste 0 940.2 -- 56
2020-10-16 00:00:00 9.3 0 Calma 5 Sudoeste 0 940.2 -- 53
2020-10-15 23:00:00 10.4 0 Calma 6 Oeste 0 939.5 -- 47
2020-10-15 22:00:00 11.8 2 Oeste 13 Oeste 0 939.2 -- 42
2020-10-15 21:00:00 13 4 Oeste 16 Oeste 0 938.8 -- 39
2020-10-15 20:00:00 14.2 5 Oeste 23 Oeste 0 938.3 -- 37
2020-10-15 19:00:00 15.9 5 Oeste 26 Oeste 0 937.9 -- 33
2020-10-15 18:00:00 17.4 9 Oeste 28 Oeste 0 937.6 -0.3 32
2020-10-15 17:00:00 18.1 6 Oeste 33 Oeste 0 937.6 -- 31
2020-10-15 16:00:00 18.1 6 Oeste 32 Oeste 0 937.9 -- 33
2020-10-15 15:00:00 17.3 9 Oeste 30 Oeste 0 937.9 -- 35
2020-10-15 14:00:00 16.9 6 Oeste 26 Oeste 0 938.5 -- 37
2020-10-15 13:00:00 15.7 6 Oeste 26 Sudoeste 0 939.2 -- 40
2020-10-15 12:00:00 13.3 6 Oeste 22 Oeste 0 939.8 -- 49
2020-10-15 11:00:00 9.7 5 Oeste 22 Oeste 0 939.8 -- 59
2020-10-15 10:00:00 7.9 7 Oeste 18 Oeste 0 939.6 -- 64
2020-10-15 09:00:00 6.2 3 Oeste 11 Oeste 0 938.9 -- 67
2020-10-15 08:00:00 5.8 4 Oeste 14 Oeste 0 938.5 -- 65
2020-10-15 07:00:00 5.9 5 Sudoeste 13 Oeste 0 938.4 -- 64
2020-10-15 06:00:00 6.5 3 Sudoeste 9 Sudoeste 0 938.2 -- 60
2020-10-15 05:00:00 6.6 4 Sudoeste 14 Oeste 0 938.1 -- 58
2020-10-15 04:00:00 7.3 3 Oeste 11 Oeste 0 938.3 -- 54
2020-10-15 03:00:00 7.5 0 Calma 5 Oeste 0 938.3 -- 54
2020-10-15 02:00:00 9 3 Sudoeste 13 Oeste 0 938 -- 49
2020-10-15 01:00:00 9.3 4 Oeste 13 Sudoeste 0 937.7 -- 47
2020-10-15 00:00:00 9.8 5 Oeste 11 Oeste 0 937.4 -- 46
2020-10-14 23:00:00 10.7 3 Oeste 12 Oeste 0 937.2 -- 42
2020-10-14 22:00:00 13.1 2 Noroeste 12 Noroeste 0 936.6 -- 37
2020-10-14 21:00:00 13.8 3 Oeste 27 Oeste 0 936.1 -- 36
2020-10-14 20:00:00 15.3 4 Oeste 17 Oeste 0 935.5 -- 34
2020-10-14 19:00:00 16.6 4 Noroeste 30 Sudoeste 0 934.9 -- 32
2020-10-14 18:00:00 17.4 7 Noroeste 37 Oeste 0 934.2 -- 30
2020-10-14 17:00:00 18.9 6 Noroeste 35 Oeste 0 933.7 -- 31
2020-10-14 16:00:00 19 9 Oeste 31 Oeste 0 933.3 -- 30
2020-10-14 15:00:00 19 6 Noroeste 33 Oeste 0 933.5 -- 30
2020-10-14 14:00:00 18.7 11 Oeste 36 Oeste 0 933.9 -- 31
2020-10-14 13:00:00 17.6 6 Noroeste 26 Oeste 0 933.9 -- 40
2020-10-14 12:00:00 16.3 7 Oeste 25 Noroeste 0 934 -- 49
2020-10-14 11:00:00 14.2 7 Oeste 22 Oeste 0 934 -- 59
2020-10-14 10:00:00 12.7 6 Oeste 18 Oeste 0 933.9 -- 63
2020-10-14 09:00:00 12.1 6 Oeste 14 Oeste 0 933.4 -- 64
2020-10-14 08:00:00 12.1 5 Oeste 14 Sudoeste 0 932.9 -- 64
2020-10-14 07:00:00 11.7 5 Sudoeste 12 Sudoeste 0 932.8 -- 62
2020-10-14 06:00:00 12 5 Oeste 14 Sudoeste 0 932.7 -- 59
2020-10-14 05:00:00 12.9 5 Oeste 14 Oeste 0 933 -- 57
2020-10-14 04:00:00 12.8 2 Sudoeste 9 Sudoeste 0 933.6 -- 58
2020-10-14 03:00:00 13.1 2 Oeste 12 Sudoeste 0 934.4 -- 55
2020-10-14 02:00:00 12.6 2 Sudoeste 6 Sudoeste 0 934.7 -- 57
2020-10-14 01:00:00 13.4 0 Calma 7 Sudoeste 0 935.2 -- 52
2020-10-14 00:00:00 14.3 4 Sudoeste 13 Oeste 0 935.4 -- 50
2020-10-13 23:00:00 14.8 4 Sudoeste 13 Sur 0 935.5 -- 50
2020-10-13 22:00:00 15.9 4 Sudoeste 10 Sudoeste 0 935.5 -- 49
2020-10-13 21:00:00 16.4 0 Calma 6 Oeste 0 935.4 -- 46
2020-10-13 20:00:00 18.6 0 Calma 15 Oeste 0 935.8 -- 40
2020-10-13 19:00:00 20.4 6 Oeste 25 Oeste 0 936.1 -- 36
2020-10-13 18:00:00 20.8 13 Oeste 28 Oeste 0 936.4 -- 36
2020-10-13 17:00:00 20.9 9 Oeste 30 Oeste 0 936.9 -- 36
2020-10-13 16:00:00 21.9 9 Oeste 28 Oeste 0 937.4 -- 36
2020-10-13 15:00:00 22.4 6 Oeste 26 Sudoeste 0 938.1 -- 36
2020-10-13 14:00:00 21.2 7 Oeste 28 Oeste 0 939.4 -- 37
2020-10-13 13:00:00 19.3 9 Oeste 18 Oeste 0 939.9 -- 38
2020-10-13 12:00:00 16.4 9 Oeste 19 Oeste 0 940.4 -0.7 43
2020-10-13 11:00:00 13.1 5 Oeste 13 Oeste 0 941 -- 50
2020-10-13 10:00:00 10.6 3 Sudoeste 9 Sur 0 941.1 -0.2 57
2020-10-13 09:00:00 7.9 2 Oeste 5 Sudoeste 0 941.1 -- 66
2020-10-13 08:00:00 7.7 2 Sudoeste 5 Sudoeste 0 941.1 -- 64
2020-10-13 07:00:00 7.6 0 Calma 5 Oeste 0 941.3 -- 64
2020-10-13 06:00:00 8.4 0 Calma 6 Sudoeste 0 941.3 -0.4 60
2020-10-13 05:00:00 9 3 Sudoeste 9 Sudoeste 0 941.4 -- 57
2020-10-13 04:00:00 -- -- -- -- -- -- -- -- --
2020-10-13 03:00:00 9.8 5 Oeste 14 Oeste 0 941.7 -1.3 51
2020-10-13 02:00:00 10.6 4 Oeste 17 Oeste 0 942.1 -- 49
2020-10-13 01:00:00 -- -- -- -- -- -- -- -- --
2020-10-13 00:00:00 11.3 3 Oeste 16 Oeste 0 943 0.3 47
2020-10-12 23:00:00 12 6 Oeste 15 Oeste 0 943.1 -- 44
2020-10-12 22:00:00 14.1 4 Oeste 17 Oeste 0 942.9 1.2 39
2020-10-12 21:00:00 14.8 4 Oeste 17 Oeste 0 942.7 -- 36
2020-10-12 20:00:00 16.5 6 Oeste 20 Oeste 0 942.3 -- 32
2020-10-12 19:00:00 17.7 9 Oeste 25 Oeste 0 941.7 -- 30
2020-10-12 18:00:00 19.3 6 Oeste 21 Oeste 0 941.9 -1.4 29
2020-10-12 17:00:00 19.2 6 Oeste 24 Oeste 0 942.4 -- 28
2020-10-12 16:00:00 19.2 5 Oeste 18 Oeste 0 942.6 -- 30
2020-10-12 15:00:00 18.2 6 Oeste 18 Oeste 0 943.3 -- 34
2020-10-12 14:00:00 16.4 6 Oeste 17 Oeste 0 944.3 -- 39
2020-10-12 13:00:00 14.5 6 Oeste 17 Oeste 0 945 -0.7 43
2020-10-12 12:00:00 12.5 3 Noroeste 17 Oeste 0 945.3 -- 50
2020-10-12 11:00:00 9.8 5 Oeste 23 Oeste 0 945.6 -- 60
2020-10-12 10:00:00 8 6 Oeste 18 Oeste 0 945.7 -- 67
2020-10-12 09:00:00 6 4 Oeste 21 Oeste 0 945.4 -- 73
2020-10-12 08:00:00 5.6 4 Oeste 17 Oeste 0 945.1 0.1 72
2020-10-12 07:00:00 6.2 4 Oeste 12 Oeste 0 945.1 -- 68
2020-10-12 06:00:00 6.9 4 Oeste 10 Noroeste 0 945.1 -0.4 64
2020-10-12 05:00:00 7.5 2 Oeste 10 Oeste 0 945 -- 60
2020-10-12 04:00:00 -- -- -- -- -- -- -- -- --
2020-10-12 03:00:00 8.5 2 Oeste 10 Norte 0 945.5 -- 51
2020-10-12 02:00:00 9.3 0 Calma 11 Nordeste 0 945.7 0.3 47
2020-10-12 01:00:00 10.5 0 Calma 10 Oeste 0 946 -- 41
2020-10-12 00:00:00 11.2 0 Calma 14 Norte 0 946 -- 38
2020-10-11 23:00:00 12.1 0 Calma 11 Norte 0 945.4 2 36
2020-10-11 22:00:00 13.5 0 Calma 14 Noroeste 0 945 -- 31
2020-10-11 21:00:00 -- -- -- -- -- -- -- -- --
2020-10-11 20:00:00 -- -- -- -- -- -- -- -- --
2020-10-11 19:00:00 19.2 5 Noroeste 27 Oeste 0 942.8 -- 19
2020-10-11 18:00:00 21.6 4 Noroeste 25 Noroeste 0 942.4 -1.6 17
2020-10-11 17:00:00 21.5 3 Noroeste 23 Oeste 0 942.6 -- 21
2020-10-11 16:00:00 21 5 Oeste 25 Oeste 0 943.1 -- 25
2020-10-11 15:00:00 20 5 Oeste 21 Oeste 0 944 -- 27
2020-10-11 14:00:00 18.8 4 Noroeste 21 Oeste 0 944.6 -- 30
2020-10-11 13:00:00 17.2 4 Noroeste 16 Oeste 0 945.3 -- 35
2020-10-11 12:00:00 15.2 4 Noroeste 14 Noroeste 0 945.4 -- 45
2020-10-11 11:00:00 12.9 3 Noroeste 11 Noroeste 0 945.3 -- 51
2020-10-11 10:00:00 12 3 Noroeste 15 Noroeste 0 945.3 -- 56
2020-10-11 09:00:00 11.9 0 Calma 13 Norte 0 944.8 -- 55
2020-10-11 08:00:00 12.6 0 Calma 10 Nordeste 0 944.3 -- 54
2020-10-11 07:00:00 13.3 2 Norte 12 Norte 0 944.1 -- 54
2020-10-11 06:00:00 13.8 3 Nordeste 12 Este 0 943.3 -- 59
2020-10-11 05:00:00 14.4 3 Nordeste 13 Norte 0 943.5 -- 60
2020-10-11 04:00:00 15.2 3 Nordeste 12 Nordeste 0 943.9 -- 61
2020-10-11 03:00:00 16 2 Nordeste 10 Norte 0 944 -- 67
2020-10-11 02:00:00 16.7 2 Nordeste 9 Nordeste 0 943.9 -- 87
2020-10-11 01:00:00 16.4 4 Este 14 Este 0 943.8 -- 87
2020-10-11 00:00:00 17.1 6 Este 15 Este 0 944 -- 80
2020-10-10 23:00:00 17.9 4 Este 14 Sudeste 0 943.4 -- 75
2020-10-10 22:00:00 18.8 4 Sudeste 18 Sur 0 942.7 -- 70
2020-10-10 21:00:00 19.9 3 Sur 16 Sudoeste 0 942.5 -- 60
2020-10-10 20:00:00 21.3 2 Sur 7 Sur 0 942.2 -- 47
2020-10-10 19:00:00 24 0 Calma 10 Oeste 0 941.9 -- 39
2020-10-10 18:00:00 25.2 2 Noroeste 9 Oeste 0 942.3 -- 34
2020-10-10 17:00:00 25.8 2 Sudeste 15 Noroeste 0 942.1 -- 36
2020-10-10 16:00:00 25.2 3 Nordeste 10 Este 0 942.6 -- 37
2020-10-10 15:00:00 24.7 2 Noroeste 11 Norte 0 943.5 -- 40
2020-10-10 14:00:00 22.6 4 Nordeste 13 Este 0 944.2 -- 53
2020-10-10 13:00:00 20.2 4 Este 12 Este 0 944.9 -- 67
2020-10-10 12:00:00 16.8 3 Nordeste 8 Este 0 945.5 -- 94
2020-10-10 11:00:00 14.4 0 Calma 9 Este 0 945.4 -- 96
2020-10-10 10:00:00 14.1 2 Este 8 Este 0 945.2 -- 96
2020-10-10 09:00:00 13.1 0 Calma 9 Este 0 945 -- 96
2020-10-10 08:00:00 12.9 0 Calma 7 Este 0 944.7 -- 96
2020-10-10 07:00:00 12.9 0 Calma 2 Este 0 944.3 -- 96
2020-10-10 06:00:00 12.2 0 Calma 7 Este 0 944.3 -- 96
2020-10-10 05:00:00 12.5 0 Calma 7 Este 0 944.1 -- 95
2020-10-10 04:00:00 13.9 0 Calma 0 Calma 0 944.3 -- 93
2020-10-10 03:00:00 14.6 0 Calma 6 Nordeste 0 944.3 -- 89
2020-10-10 02:00:00 15.4 0 Calma 5 Sudeste 0 944.4 -- 82
2020-10-10 01:00:00 16.5 0 Calma 7 Nordeste 0 944.7 -- 67
2020-10-10 00:00:00 18.7 0 Calma 14 Sudeste 0 944.7 -- 64
2020-10-09 23:00:00 19.5 3 Sudeste 9 Sudeste 0 944.5 -- 58
2020-10-09 22:00:00 20.3 4 Sur 8 Sudeste 0 944.2 -- 45
2020-10-09 21:00:00 20.6 0 Calma -- -- 0 944 -- 44
2020-10-09 20:00:00 23 0 Calma 5 Norte 0 943.8 -- 36
2020-10-09 19:00:00 25.9 0 Calma 10 Norte 0 943.3 -- 29
2020-10-09 18:00:00 27.7 0 Calma 13 Oeste 0 943.2 -- 26
2020-10-09 17:00:00 27.8 3 Oeste 16 Oeste 0 943.4 -- 25
2020-10-09 16:00:00 28.3 3 Oeste 15 Oeste 0 943.4 -- 27
2020-10-09 15:00:00 26.4 2 Oeste 10 Oeste 0 944.2 -- 36
2020-10-09 14:00:00 23.1 0 Calma 8 Este 0 945 -- 48
2020-10-09 13:00:00 21.1 3 Este 10 Este 0 945.5 -- 62
2020-10-09 12:00:00 16.8 3 Nordeste 9 Este 0 945.8 -- 84
2020-10-09 11:00:00 15.2 3 Nordeste -- -- -- 945.8 -- 93
2020-10-09 10:00:00 14.1 0 Calma 6 Este 0 945.5 -- 93
2020-10-09 09:00:00 13.2 3 Este 9 Nordeste 0 945.2 -- 93
2020-10-09 08:00:00 14.7 2 Sudeste 9 Sudeste 0 944.8 -- 94
2020-10-09 07:00:00 14.8 5 Sudeste 12 Sudeste 0 944.6 -- 94
2020-10-09 06:00:00 15.3 6 Sudeste 15 Sudeste 0 944.5 -- 93
2020-10-09 05:00:00 15.8 4 Sudeste 16 Sur 0 944.5 -- 93
2020-10-09 04:00:00 15.9 5 Sudeste 19 Sudeste 0 944.8 -- 93
2020-10-09 03:00:00 15.8 8 Sudeste 19 Sudeste 0 945 -- 92
2020-10-09 02:00:00 16.3 6 Sur 22 Sudeste 0 945.2 -- 91
2020-10-09 01:00:00 16.8 6 Sudeste 21 Sudeste 0 945.2 -- 87
2020-10-09 00:00:00 17.5 3 Sudeste 17 Sudeste 0 945.4 -- 80
2020-10-08 23:00:00 18.6 0 Calma 15 Sudeste 0 945.5 -- 72
2020-10-08 22:00:00 19.9 5 Sudeste 19 Sudeste 0 945.1 -- 65
2020-10-08 21:00:00 20.9 6 Sudeste 18 Sur 0 944.9 -- 56
2020-10-08 20:00:00 22.4 4 Sudeste 15 Sudeste 0 944.7 -- 47
2020-10-08 19:00:00 24.2 5 Sudeste 15 Sudeste 0 944.2 -- 40
2020-10-08 18:00:00 26.1 6 Sudeste 22 Sudeste 0 944 -- 34
2020-10-08 17:00:00 26.6 5 Sur 25 Sudeste 0 944 -- 33
2020-10-08 16:00:00 26.5 6 Sur 28 Sudoeste 0 944.3 -- 33
2020-10-08 15:00:00 25.7 8 Sur 25 Sur 0 945.1 -- 36
2020-10-08 14:00:00 24.3 9 Sur 28 Sur 0 946.1 -- 38
2020-10-08 13:00:00 23.5 5 Sur 26 Este 0 946.5 -- 41
2020-10-08 12:00:00 21.8 6 Sur 22 Sudeste 0 947 -- 48
2020-10-08 11:00:00 17.6 4 Sudeste 14 Sur 0 947 -- 65
2020-10-08 10:00:00 13.4 0 Calma 5 Este 0 947 -- 86
2020-10-08 09:00:00 10.9 0 Calma -- -- 0 946.3 -- 92
2020-10-08 08:00:00 10.6 0 Calma -- -- 0 946.3 -- 90
2020-10-08 07:00:00 11 0 Calma -- -- 0 946 -- 87
2020-10-08 06:00:00 11.7 0 Calma -- -- 0 945.9 -- 84
2020-10-08 05:00:00 12.5 0 Calma 0 Calma 0 945.8 -- 79
2020-10-08 04:00:00 13.2 0 Calma 6 Nordeste 0 945.9 -- 74
2020-10-08 03:00:00 15.4 0 Calma 10 Norte 0 946 -- 66
2020-10-08 02:00:00 15.9 2 Sudeste 9 Sudeste 0 945.9 -- 64
2020-10-08 01:00:00 16.6 2 Sudoeste 9 Sudoeste 0 946.1 -- 61
2020-10-08 00:00:00 16.2 2 Sudeste 9 Sur 0 946 -- 64
2020-10-07 23:00:00 17.2 0 Calma 8 Sudoeste 0 945.7 -- 60
2020-10-07 22:00:00 17.9 0 Calma -- -- 0 945.1 -- 61
2020-10-07 21:00:00 19.5 0 Calma -- -- 0 945 -- 53
2020-10-07 20:00:00 21.9 0 Calma 4 Oeste 0 944.4 -- 44
2020-10-07 19:00:00 24.8 4 Oeste 9 Oeste 0 944.2 -- 32
2020-10-07 18:00:00 -- 0 Calma -- -- -- -- -- --
2020-10-07 17:00:00 -- -- -- -- -- -- -- -- --
2020-10-07 16:00:00 -- -- -- -- -- -- -- -- --
2020-10-07 15:00:00 26 0 Calma 18 Oeste 0 945.1 -- 34
2020-10-07 14:00:00 24.6 3 Norte 13 Sudoeste 0 945.9 -- 38
2020-10-07 13:00:00 22.3 2 Oeste 12 Oeste 0 946.3 -- 48
2020-10-07 12:00:00 18.5 5 Oeste 12 Oeste 0 946.6 -- 62
2020-10-07 11:00:00 15.7 0 Calma 7 Oeste 0 946.4 -- 72
2020-10-07 10:00:00 13.4 0 Calma 0 Calma 0 946.2 -- 83
2020-10-07 09:00:00 11.1 0 Calma 0 Calma 0 945.9 -- 93
2020-10-07 08:00:00 10.9 0 Calma -- -- 0 945.4 -- 91
2020-10-07 07:00:00 11 0 Calma 0 Calma 0 945.2 -- 91
2020-10-07 06:00:00 11.3 0 Calma -- -- 0 945.1 -- 91
2020-10-07 05:00:00 11.5 0 Calma -- -- 0 944.6 -- 88
2020-10-07 04:00:00 12.2 0 Calma -- -- 0 944.9 -- 85
2020-10-07 03:00:00 13.4 0 Calma 0 Calma 0 945.1 -- 78
2020-10-07 02:00:00 14.7 0 Calma 8 Sudoeste 0 945.3 -- 72
2020-10-07 01:00:00 15.4 0 Calma 10 Sur 0 945.2 -- 69
2020-10-07 00:00:00 16 4 Oeste 9 Sudoeste 0 945.4 -- 66
2020-10-06 23:00:00 17.3 2 Oeste 10 Sudoeste 0 945.3 -- 60
2020-10-06 22:00:00 18.5 4 Oeste 9 Oeste 0 945 -- 54
2020-10-06 21:00:00 19.3 4 Oeste 11 Sudoeste 0 944.8 -- 51
2020-10-06 20:00:00 20.9 6 Oeste 19 Oeste 0 944 -- 44
2020-10-06 19:00:00 22.5 5 Oeste 22 Oeste 0 943.9 -- 40
2020-10-06 18:00:00 23.7 7 Oeste 24 Oeste 0 943.5 -- 37
2020-10-06 17:00:00 23.9 7 Oeste 21 Oeste 0 943.7 -- 35
2020-10-06 16:00:00 23.7 5 Noroeste 23 Oeste 0 944 -- 35
2020-10-06 15:00:00 22.4 6 Oeste 24 Oeste 0 944.6 -- 37
2020-10-06 14:00:00 21.4 6 Oeste 24 Oeste 0 945.6 -- 39
2020-10-06 13:00:00 20.2 5 Noroeste 18 Oeste 0 946.5 -- 45
2020-10-06 12:00:00 16.5 3 Noroeste 12 Oeste 0 946.5 -- 55
2020-10-06 11:00:00 12.8 0 Calma 8 Norte 0 946.2 -- 66
2020-10-06 10:00:00 11 2 Noroeste 5 Oeste 0 945.7 -- 72
2020-10-06 09:00:00 8.6 0 Calma 0 Calma 0 944.9 -- 85
2020-10-06 08:00:00 8.3 0 Calma -- -- 0 944.8 -- 81
2020-10-06 07:00:00 9 0 Calma -- -- 0 944.5 -- 76
2020-10-06 06:00:00 9.5 0 Calma 0 Calma 0 943.9 -- 72
2020-10-06 05:00:00 9.9 0 Calma 9 Sudoeste 0 943.9 -- 69
2020-10-06 04:00:00 9.9 0 Calma 7 Sudoeste 0 944.2 -- 69
2020-10-06 03:00:00 10.1 0 Calma 8 Sur 0 944.5 -- 67
2020-10-06 02:00:00 10.5 0 Calma 9 Sudoeste 0 944.2 -- 65
2020-10-06 01:00:00 10.8 4 Oeste 12 Oeste 0 944.2 -- 61
2020-10-06 00:00:00 11.7 3 Oeste 13 Oeste 0 944.1 -- 57
2020-10-05 23:00:00 12.5 4 Oeste 17 Oeste 0 943.9 -- 52
2020-10-05 22:00:00 13.2 3 Oeste 14 Oeste 0 943.4 -- 49
2020-10-05 21:00:00 14.5 4 Oeste 11 Oeste 0 942.8 -- 44
2020-10-05 20:00:00 16 3 Oeste 23 Oeste 0 942.2 -- 39
2020-10-05 19:00:00 17.1 7 Oeste 26 Oeste 0 941.5 -- 35
2020-10-05 18:00:00 18.4 8 Oeste 32 Oeste 0 941.1 -- 34
2020-10-05 17:00:00 18.4 9 Oeste 30 Oeste 0 940.3 -- 34
2020-10-05 16:00:00 18 11 Oeste 34 Oeste 0 940.2 -- 36
2020-10-05 15:00:00 17.6 9 Oeste 28 Oeste 0 940 -0.5 38
2020-10-05 14:00:00 17.2 5 Oeste 29 Oeste 0 940.2 0.1 39
2020-10-05 13:00:00 16.1 6 Oeste 23 Oeste 0 940.2 0.8 44
2020-10-05 12:00:00 14.5 4 Noroeste 23 Oeste 0 940.5 -- 53
2020-10-05 11:00:00 12.2 5 Oeste 21 Oeste 0 940.1 -- 64
2020-10-05 10:00:00 10.2 5 Oeste 16 Oeste 0 939.4 -- 79
2020-10-05 09:00:00 8.5 4 Oeste 14 Sudoeste 0 938.6 -- 88
2020-10-05 08:00:00 8.5 5 Sudoeste 13 Oeste 0 938 -- 91
2020-10-05 07:00:00 9.1 3 Sudoeste 10 Sur 0 937.6 -- 91
2020-10-05 06:00:00 9.1 3 Oeste 9 Sudoeste 0 937.3 -- 91
2020-10-05 05:00:00 9.5 0 Calma 9 Oeste 0 936.9 -- 89
2020-10-05 04:00:00 10.2 0 Calma 12 Sudoeste 0 936.9 -- 85
2020-10-05 03:00:00 10.9 0 Calma 12 Oeste 0 936.6 -- 82
2020-10-05 02:00:00 11 4 Oeste 12 Oeste 0 936.5 -- 84
2020-10-05 01:00:00 11.1 0 Calma 10 Sudoeste 0 936.2 -- 81
2020-10-05 00:00:00 11.5 0 Calma 17 Oeste 0 936.2 -- 80
2020-10-04 23:00:00 12.1 4 Oeste 18 Oeste 0 935.9 -- 79
2020-10-04 22:00:00 12.8 4 Oeste 21 Oeste 0 935.6 -- 76
2020-10-04 21:00:00 13.5 4 Oeste 24 Noroeste 0 935.1 -- 73
2020-10-04 20:00:00 14.2 12 Oeste 39 Oeste 0 934.4 -- 69
2020-10-04 19:00:00 15.7 15 Oeste 41 Oeste 0 933.8 -- 61
2020-10-04 18:00:00 16.7 18 Oeste 43 Oeste 0 933.4 -- 57
2020-10-04 17:00:00 16.6 13 Oeste 40 Oeste 0 932.9 -- 55
2020-10-04 16:00:00 16.5 13 Oeste 38 Sudoeste 0 932.8 -- 54
2020-10-04 15:00:00 16.5 16 Oeste 46 Oeste 0 932.7 -- 51
2020-10-04 14:00:00 17.2 11 Oeste 36 Oeste 0 932.9 -- 47
2020-10-04 13:00:00 16.7 12 Oeste 35 Sudoeste 0 933.4 -- 50
2020-10-04 12:00:00 14.5 15 Oeste 33 Oeste 0 933.6 -- 54
2020-10-04 11:00:00 12.3 14 Oeste 36 Oeste 0 933.8 -- 64
2020-10-04 10:00:00 10.5 10 Sudoeste 22 Sudoeste 0 933.9 -- 73
2020-10-04 09:00:00 8.6 4 Oeste 15 Oeste 0 933.9 -- 78
2020-10-04 08:00:00 8.2 3 Sudoeste 19 Oeste 0 933.5 -- 78
2020-10-04 07:00:00 8.2 4 Sudoeste 16 Sudoeste 0 933.3 -- 76
2020-10-04 06:00:00 8.2 3 Sudoeste 17 Sudoeste 0 933.2 -- 76
2020-10-04 05:00:00 8.2 0 Calma 12 Sudoeste 0 933.5 -- 76
2020-10-04 04:00:00 8.8 0 Calma 13 Oeste 0 934.1 -- 75
2020-10-04 03:00:00 9.3 0 Calma 14 Sudoeste 0 934.8 -- 73
2020-10-04 02:00:00 9.9 0 Calma 18 Sudoeste 0 934.3 -- 70
2020-10-04 01:00:00 10.6 7 Oeste 27 Oeste 0 934.4 -- 68
2020-10-04 00:00:00 11 7 Oeste 22 Oeste 0 934.4 -- 68
2020-10-03 23:00:00 11 6 Sudoeste 19 Sudoeste 0 934.5 -- 66
2020-10-03 22:00:00 11.8 5 Sudoeste 17 Sudoeste 0 933.8 -- 58
2020-10-03 21:00:00 12.6 6 Oeste 21 Oeste 0 933.5 -- 49
2020-10-03 20:00:00 13.9 8 Oeste 24 Oeste 0 932.7 -- 44
2020-10-03 19:00:00 15.3 7 Oeste 32 Oeste 0 932.3 -- 39
2020-10-03 18:00:00 16.5 6 Oeste 38 Noroeste 0 932.1 -- 37
2020-10-03 17:00:00 16.4 9 Oeste 35 Oeste 0 932.3 -- 39
2020-10-03 16:00:00 16.2 11 Oeste 37 Oeste 0 932.1 -- 39
2020-10-03 15:00:00 15.4 10 Oeste 38 Oeste 0 932 -- 40
2020-10-03 14:00:00 14.6 11 Oeste 33 Oeste 0 932.2 -- 43
2020-10-03 13:00:00 13.5 9 Oeste 34 Oeste 0 932.4 -- 46
2020-10-03 12:00:00 11.9 10 Oeste 34 Oeste 0.1 932 -- 56
2020-10-03 11:00:00 9.8 9 Oeste 24 Oeste 0 931.5 -- 69
2020-10-03 10:00:00 7.9 11 Oeste 24 Oeste 0 931 -- 80
2020-10-03 09:00:00 6.5 4 Oeste 17 Oeste 0 930.2 -- 85
2020-10-03 08:00:00 6.2 4 Oeste 21 Sudoeste 0 929.3 -- 84
2020-10-03 07:00:00 6.3 5 Oeste 18 Sudoeste 0 929 -- 83
2020-10-03 06:00:00 6.6 4 Oeste 13 Sudoeste 0 928.2 -- 79
2020-10-03 05:00:00 7.1 4 Oeste 21 Oeste 0 927.9 -- 76
2020-10-03 04:00:00 7.9 9 Oeste 21 Oeste 0 927.4 -- 74
2020-10-03 03:00:00 8.7 7 Oeste 27 Oeste 0 927.1 -- 69
2020-10-03 02:00:00 8.8 8 Oeste 23 Oeste 0 926.9 -- 69
2020-10-03 01:00:00 8.9 6 Oeste 17 Oeste 0 926.9 -- 69
2020-10-03 00:00:00 9.4 8 Oeste 22 Oeste 0 926.7 -- 68
2020-10-02 23:00:00 10.1 10 Oeste 35 Oeste 0 925.9 -- 62
2020-10-02 22:00:00 10.3 9 Oeste 27 Oeste 0 925.2 -- 66
2020-10-02 21:00:00 10.8 9 Oeste 27 Oeste 0 924.5 -- 77
2020-10-02 20:00:00 10.9 10 Oeste 23 Oeste 0 923.8 -- 76
2020-10-02 19:00:00 10 6 Oeste 20 Oeste 0 923.6 -- 90
2020-10-02 18:00:00 9.3 4 Oeste 27 Oeste 1 922.8 -- 92
2020-10-02 17:00:00 9.1 6 Noroeste 36 Norte 2.7 922.9 -- 92
2020-10-02 16:00:00 10.8 10 Noroeste 72 Oeste 13.1 921.1 -- 94
2020-10-02 15:00:00 17.4 20 Oeste 60 Oeste 0.1 919.3 -- 70
2020-10-02 14:00:00 17.6 20 Sudoeste 62 Sudoeste 0 920 -- 64
2020-10-02 13:00:00 17.5 26 Sudoeste 67 Oeste 0 921.1 -- 64
2020-10-02 12:00:00 17.4 18 Oeste 48 Oeste 0 922 -- 65
2020-10-02 11:00:00 16.3 20 Sudoeste 51 Sudoeste 0 922.6 -- 67
2020-10-02 10:00:00 15 13 Oeste 39 Sudoeste 0 923.5 -- 70
2020-10-02 09:00:00 14.8 13 Oeste 37 Sudoeste 0 924.6 -- 71
2020-10-02 08:00:00 14.6 16 Oeste 46 Oeste 0 925 -- 70
2020-10-02 07:00:00 15 15 Oeste 45 Oeste 0 925.1 -- 66
2020-10-02 06:00:00 15.8 13 Oeste 45 Oeste 0 926.4 -- 65
2020-10-02 05:00:00 16.2 12 Oeste 31 Oeste 0 927.1 -- 67
2020-10-02 04:00:00 15.9 10 Oeste 26 Oeste 0 928 -- 66
2020-10-02 03:00:00 16.1 6 Oeste 27 Oeste 0 929.5 -- 66
2020-10-02 02:00:00 16.6 9 Oeste 23 Oeste 0 930.5 -- 64
2020-10-02 01:00:00 17.3 6 Oeste 22 Oeste 0 931.1 -- 62
2020-10-02 00:00:00 17.9 4 Oeste 18 Oeste 0 932.3 -- 56
2020-10-01 23:00:00 18.6 6 Oeste 19 Oeste 0 932.9 -- 52
2020-10-01 22:00:00 19.4 8 Oeste 18 Oeste 0 932.7 -- 47
2020-10-01 21:00:00 20.9 8 Oeste 27 Oeste 0 932.2 -- 42
2020-10-01 20:00:00 22.5 9 Oeste 26 Oeste 0 931.9 -- 37
2020-10-01 19:00:00 24.3 10 Oeste 30 Noroeste 0 931.8 -- 28
2020-10-01 18:00:00 25.5 8 Oeste 39 Oeste 0 932.1 -- 25
2020-10-01 17:00:00 26.7 12 Oeste 33 Oeste 0 932.5 -- 23
2020-10-01 16:00:00 26.9 13 Oeste 38 Oeste 0 933 -- 23
2020-10-01 15:00:00 25.8 8 Oeste 27 Oeste 0 933.6 -- 27
2020-10-01 14:00:00 25.1 6 Oeste 27 Oeste 0 934.3 -- 30
2020-10-01 13:00:00 24 10 Oeste 32 Oeste 0 935.4 -- 31
2020-10-01 12:00:00 22.3 10 Oeste 32 Oeste 0 935.7 -- 41
2020-10-01 11:00:00 18.7 5 Oeste 17 Oeste 0 935.8 -- 57
2020-10-01 10:00:00 16.6 4 Oeste 11 Sudoeste 0 935.8 -- 65
2020-10-01 09:00:00 14.7 2 Oeste 7 Oeste 0 935.6 -- 65
2020-10-01 08:00:00 13.2 0 Calma 6 Noroeste 0 935.6 -- 63
2020-10-01 07:00:00 15 0 Calma 19 Oeste 0 935.8 -- 56
2020-10-01 06:00:00 15.2 4 Oeste 14 Oeste 0 935.5 -- 54
2020-10-01 05:00:00 15.5 3 Oeste 9 Oeste 0 935.7 -- 53
2020-10-01 04:00:00 15.9 3 Oeste 14 Oeste 0 936.3 -- 51
2020-10-01 03:00:00 17.1 8 Oeste 17 Oeste 0 936.8 -- 47
2020-10-01 02:00:00 16.9 4 Sudoeste 10 Oeste 0 937 -- 44
2020-10-01 01:00:00 17.4 4 Sudoeste 13 Sudoeste 0 937.2 -- 40
2020-10-01 00:00:00 18 4 Sudoeste 12 Sudoeste 0 937.4 -- 37